createdAt,value
2022-10-28T00:03:53.684Z,68.10
2022-10-28T00:09:26.031Z,68.06
2022-10-28T00:14:57.870Z,67.99
2022-10-28T00:20:29.731Z,67.96
2022-10-28T00:26:01.375Z,67.96
2022-10-28T00:31:33.319Z,68.03
2022-10-28T00:37:05.115Z,68.02
2022-10-28T00:42:36.557Z,68.06
2022-10-28T00:48:08.434Z,68.06
2022-10-28T00:53:40.357Z,68.11
2022-10-28T00:59:12.037Z,68.11
2022-10-28T01:04:43.911Z,68.09
2022-10-28T01:10:16.070Z,68.14
2022-10-28T01:15:47.976Z,68.18
2022-10-28T01:21:19.779Z,68.32
2022-10-28T01:26:51.370Z,68.34
2022-10-28T01:32:23.277Z,68.41
2022-10-28T01:37:55.647Z,68.46
2022-10-28T01:43:27.011Z,68.46
2022-10-28T01:48:58.719Z,68.51
2022-10-28T01:54:30.611Z,68.57
2022-10-28T02:00:02.493Z,68.75
2022-10-28T02:05:34.406Z,68.77
2022-10-28T02:11:06.432Z,68.86
2022-10-28T02:16:38.143Z,68.84
2022-10-28T02:22:09.733Z,68.80
2022-10-28T02:27:41.854Z,68.83
2022-10-28T02:33:13.984Z,68.87
2022-10-28T02:38:45.843Z,68.89
2022-10-28T02:44:18.123Z,69.02
2022-10-28T02:49:50.368Z,69.10
2022-10-28T02:55:22.623Z,69.16
2022-10-28T03:00:54.157Z,69.21
2022-10-28T03:11:57.541Z,69.27
2022-10-28T03:17:29.522Z,69.36
2022-10-28T03:23:01.202Z,69.37
2022-10-28T03:28:33.042Z,69.39
2022-10-28T03:34:04.735Z,69.40
2022-10-28T03:39:36.464Z,69.43
2022-10-28T03:45:08.245Z,69.46
2022-10-28T03:50:40.081Z,69.45
2022-10-28T03:56:12.171Z,69.54
2022-10-28T04:01:44.130Z,69.45
2022-10-28T04:09:36.773Z,69.45
2022-10-28T04:15:08.209Z,69.45
2022-10-28T04:20:40.236Z,69.40
2022-10-28T04:26:11.930Z,69.46
2022-10-28T04:31:45.471Z,69.56
2022-10-28T04:37:20.340Z,69.58
2022-10-28T04:42:48.392Z,69.63
2022-10-28T04:48:20.160Z,69.62
2022-10-28T04:53:51.858Z,69.74
2022-10-28T04:59:23.872Z,69.83
2022-10-28T05:04:55.792Z,69.91
2022-10-28T05:10:27.488Z,69.98
2022-10-28T05:15:59.291Z,70.04
2022-10-28T05:21:31.173Z,70.02
2022-10-28T05:27:02.960Z,70.10
2022-10-28T05:32:34.496Z,70.09
2022-10-28T05:38:06.261Z,70.10
2022-10-28T05:43:38.073Z,70.10
2022-10-28T05:49:09.735Z,70.09
2022-10-28T05:54:41.791Z,70.08
2022-10-28T06:00:13.279Z,70.33
2022-10-28T06:05:45.153Z,70.29
2022-10-28T06:11:15.477Z,70.29
2022-10-28T06:16:47.340Z,70.31
2022-10-28T06:22:19.150Z,70.41
2022-10-28T06:27:51.183Z,70.36
2022-10-28T06:33:22.583Z,70.35
2022-10-28T06:38:54.473Z,70.34
2022-10-28T06:44:26.111Z,70.19
2022-10-28T06:49:59.479Z,69.78
2022-10-28T06:55:31.435Z,69.61
2022-10-28T07:01:03.055Z,69.34
2022-10-28T07:06:35.002Z,69.12
2022-10-28T07:12:06.577Z,68.60
2022-10-28T07:17:38.546Z,68.35
2022-10-28T07:23:10.244Z,67.80
2022-10-28T07:28:42.126Z,67.55
2022-10-28T07:34:22.084Z,66.91
2022-10-28T07:39:51.096Z,66.42
2022-10-28T07:45:22.627Z,65.14
2022-10-28T07:51:00.160Z,64.47
2022-10-28T07:56:31.803Z,62.59
2022-10-28T08:02:03.788Z,61.29
2022-10-28T08:07:38.452Z,58.03
2022-10-28T08:13:07.141Z,55.24
2022-10-28T08:18:38.961Z,55.93
2022-10-28T08:24:10.658Z,55.69
2022-10-28T08:29:43.731Z,55.41
2022-10-28T08:35:15.214Z,54.64
2022-10-28T08:40:47.297Z,54.99
2022-10-28T08:46:18.792Z,54.70
2022-10-28T08:51:50.149Z,54.76
2022-10-28T08:57:21.908Z,55.70
2022-10-28T09:02:53.557Z,56.30
2022-10-28T09:08:25.288Z,56.53
2022-10-28T09:13:57.175Z,56.94
2022-10-28T09:19:28.789Z,57.10
2022-10-28T09:25:00.844Z,56.96
2022-10-28T09:30:32.443Z,57.11
2022-10-28T09:36:04.179Z,56.81
2022-10-28T09:41:36.478Z,56.43
2022-10-28T09:47:08.430Z,56.40
2022-10-28T09:52:40.133Z,55.79
2022-10-28T09:58:11.780Z,55.73
2022-10-28T10:03:43.516Z,56.04
2022-10-28T10:09:15.569Z,55.15
2022-10-28T10:14:53.262Z,54.54
2022-10-28T10:20:24.909Z,54.97
2022-10-28T10:25:56.583Z,54.57
2022-10-28T10:31:28.321Z,52.15
2022-10-28T10:37:00.265Z,53.10
2022-10-28T10:42:31.944Z,50.97
2022-10-28T10:48:03.689Z,50.47
2022-10-28T10:53:35.542Z,51.44
2022-10-28T10:59:07.077Z,51.97
2022-10-28T11:04:38.664Z,51.86
2022-10-28T11:10:10.571Z,51.90
2022-10-28T11:15:42.124Z,52.38
2022-10-28T11:21:14.001Z,51.84
2022-10-28T11:26:45.645Z,49.86
2022-10-28T11:32:17.467Z,49.86
2022-10-28T11:37:49.513Z,50.65
2022-10-28T11:43:21.639Z,50.74
2022-10-28T11:48:53.409Z,50.20
2022-10-28T11:54:25.312Z,50.12
2022-10-28T11:59:57.051Z,49.39
2022-10-28T12:05:28.809Z,49.82
2022-10-28T12:11:00.408Z,50.04
2022-10-28T12:16:32.464Z,48.93
2022-10-28T12:22:04.211Z,50.45
2022-10-28T12:27:35.634Z,50.99
2022-10-28T12:33:07.180Z,51.58
2022-10-28T12:38:38.911Z,51.73
2022-10-28T12:44:11.405Z,51.93
2022-10-28T12:49:43.079Z,51.89
2022-10-28T13:00:46.746Z,52.27
2022-10-28T13:06:18.549Z,52.29
2022-10-28T13:11:50.345Z,52.24
2022-10-28T13:17:22.092Z,50.93
2022-10-28T13:22:53.886Z,50.82
2022-10-28T13:28:25.763Z,50.77
2022-10-28T13:33:57.640Z,50.71
2022-10-28T13:39:29.983Z,50.62
2022-10-28T13:45:02.401Z,50.69
2022-10-28T13:50:40.299Z,51.05
2022-10-28T13:56:12.095Z,51.42
2022-10-28T14:01:44.354Z,52.21
2022-10-28T14:07:15.955Z,52.98
2022-10-28T14:12:48.057Z,53.53
2022-10-28T14:18:42.284Z,53.79
2022-10-28T14:23:52.281Z,54.33
2022-10-28T14:29:24.011Z,54.77
2022-10-28T14:34:55.922Z,54.89
2022-10-28T14:45:57.451Z,55.70
2022-10-28T14:48:20.386Z,0.00
2022-10-28T14:53:52.373Z,56.00
2022-10-28T14:59:23.974Z,56.14
2022-10-28T15:04:55.424Z,56.36
2022-10-28T15:10:29.515Z,56.79
2022-10-28T15:16:04.654Z,57.02
2022-10-28T15:21:33.091Z,56.97
2022-10-28T15:32:36.804Z,57.29
2022-10-28T15:38:08.454Z,57.44
2022-10-28T15:43:40.137Z,57.95
2022-10-28T15:49:11.822Z,58.56
2022-10-28T15:54:43.769Z,58.89
2022-10-28T16:00:15.403Z,58.95
2022-10-28T16:05:47.256Z,58.94
2022-10-28T16:11:20.818Z,58.87
2022-10-28T16:16:52.613Z,58.91
2022-10-28T16:22:24.397Z,59.01
2022-10-28T16:27:56.622Z,59.21
2022-10-28T16:33:30.125Z,59.38
2022-10-28T16:39:02.204Z,59.50
2022-10-28T16:44:34.226Z,59.63
2022-10-28T16:55:41.237Z,60.00
2022-10-28T17:06:48.400Z,60.19
2022-10-28T17:20:27.877Z,60.68
2022-10-28T17:31:35.717Z,61.07
2022-10-28T17:37:07.721Z,61.22
2022-10-28T17:42:45.658Z,61.62
2022-10-28T17:48:17.472Z,61.82
2022-10-28T17:53:49.415Z,62.14
2022-10-28T17:59:27.166Z,62.23
2022-10-28T18:04:59.037Z,62.37
2022-10-28T18:10:36.694Z,62.44
2022-10-28T18:16:08.427Z,62.66
2022-10-28T18:21:40.322Z,62.74
2022-10-28T18:27:12.084Z,62.96
2022-10-28T18:32:43.481Z,63.28
2022-10-28T18:38:15.569Z,63.85
2022-10-28T18:43:48.870Z,64.26
2022-10-28T18:49:20.355Z,64.27
2022-10-28T18:54:51.840Z,64.39
2022-10-28T19:00:23.971Z,64.74
2022-10-28T19:05:55.520Z,64.74
2022-10-28T19:11:27.678Z,64.99
2022-10-28T19:16:59.467Z,65.06
2022-10-28T19:22:30.936Z,65.15
2022-10-28T19:30:23.558Z,65.38
2022-10-28T19:35:56.705Z,65.42
2022-10-28T19:41:28.612Z,65.36
2022-10-28T19:47:03.243Z,66.02
2022-10-28T19:52:35.179Z,66.10
2022-10-28T19:58:06.951Z,66.28
2022-10-28T20:03:39.399Z,66.51
2022-10-28T20:09:10.386Z,66.48
2022-10-28T20:14:42.545Z,66.56
2022-10-28T20:20:14.592Z,66.57
2022-10-28T20:25:46.782Z,66.75
2022-10-28T20:31:18.779Z,66.72
2022-10-28T20:36:50.358Z,66.77
2022-10-28T20:53:25.708Z,67.01
2022-10-28T20:58:57.637Z,66.96
2022-10-28T21:04:29.412Z,66.96
2022-10-28T21:10:01.206Z,67.01
2022-10-28T21:15:33.135Z,66.99
2022-10-28T21:21:04.892Z,66.99
2022-10-28T21:26:37.779Z,67.00
2022-10-28T21:32:15.322Z,67.00
2022-10-28T21:37:48.220Z,67.04
2022-10-28T21:43:25.725Z,66.95
2022-10-28T21:48:57.798Z,66.96
2022-10-28T21:54:29.573Z,67.16
2022-10-28T22:00:01.627Z,67.09
2022-10-28T22:05:33.665Z,67.19
2022-10-28T22:11:05.300Z,67.21
2022-10-28T22:16:37.085Z,67.27
2022-10-28T22:22:08.914Z,67.32
2022-10-28T22:27:40.659Z,67.39
2022-10-28T22:33:12.200Z,67.48
2022-10-28T22:38:43.921Z,67.49
2022-10-28T22:44:15.839Z,67.49
2022-10-28T22:49:48.842Z,67.46
2022-10-28T22:55:20.598Z,67.54
2022-10-28T23:00:52.263Z,67.59
2022-10-28T23:06:24.339Z,67.71
2022-10-28T23:11:56.086Z,67.68
2022-10-28T23:17:28.049Z,67.73
2022-10-28T23:22:59.898Z,67.76
2022-10-28T23:28:31.501Z,67.83
2022-10-28T23:34:03.285Z,67.87
2022-10-28T23:39:34.899Z,68.01
2022-10-28T23:45:06.541Z,68.05
2022-10-28T23:50:38.457Z,68.04
2022-10-28T23:56:10.278Z,68.06
